Time;durP1;ratioP1;P1;durP2;ratioP2;P2;SDS_P1;SDS_P2;PMS_P1;PMS_P2;Temp;Humidity;BMP_temperature;BMP_pressure;BME280_temperature;BME280_humidity;BME280_pressure;Samples;Min_cycle;Max_cycle;Signal;HPM_P1;HPM_P2
2023/10/10 00:01:44;;;;;;;10.90;5.72;;;;;;;11.09;100.00;97310.19;5022285;28;20041;-68
2023/10/10 00:04:13;;;;;;;12.65;5.47;;;;;;;11.15;100.00;97302.50;5016743;28;20042;-70
2023/10/10 00:06:39;;;;;;;11.80;4.93;;;;;;;11.09;100.00;97298.41;5022278;28;20045;-69
2023/10/10 00:09:11;;;;;;;16.20;6.20;;;;;;;11.02;100.00;97299.06;5018233;28;20048;-64
2023/10/10 00:11:41;;;;;;;11.07;5.05;;;;;;;10.98;100.00;97305.59;5020779;28;20042;-70
2023/10/10 00:14:15;;;;;;;;;;;;;;;10.97;100.00;97315.78;5016851;28;20037;-69
2023/10/10 00:16:41;;;;;;;15.43;5.57;;;;;;;11.06;100.00;97310.91;5021787;28;19924;-68
2023/10/10 00:21:52;;;;;;;15.43;5.28;;;;;;;11.10;100.00;97302.75;5010567;28;20064;-69
2023/10/10 00:24:20;;;;;;;13.38;4.82;;;;;;;11.09;100.00;97296.50;5005655;28;20125;-71
2023/10/10 00:26:49;;;;;;;16.38;5.30;;;;;;;11.08;100.00;97294.09;4994244;28;20037;-71
2023/10/10 00:29:21;;;;;;;12.25;5.43;;;;;;;11.06;100.00;97294.47;5005955;28;20137;-70
2023/10/10 00:31:55;;;;;;;13.45;5.40;;;;;;;11.08;100.00;97289.41;5005764;28;20044;-70
2023/10/10 00:34:21;;;;;;;13.52;5.55;;;;;;;11.07;100.00;97281.53;5001534;28;20030;-69
2023/10/10 00:36:48;;;;;;;17.08;5.72;;;;;;;11.12;100.00;97283.22;5020388;28;20386;-70
2023/10/10 00:41:53;;;;;;;11.85;5.25;;;;;;;11.06;100.00;97285.44;5008793;28;20045;-68
2023/10/10 00:44:21;;;;;;;12.23;5.32;;;;;;;11.02;100.00;97279.06;5002835;28;20477;-70
2023/10/10 00:46:51;;;;;;;10.13;4.78;;;;;;;11.06;100.00;97285.44;5002759;28;20049;-67
2023/10/10 00:49:23;;;;;;;12.80;5.15;;;;;;;10.88;100.00;97285.00;4999989;28;20413;-69
2023/10/10 00:51:54;;;;;;;15.98;5.82;;;;;;;10.50;100.00;97278.19;5004528;28;20099;-69
2023/10/10 00:56:54;;;;;;;15.05;6.15;;;;;;;10.32;100.00;97283.22;5012497;28;20038;-69
2023/10/10 00:59:20;;;;;;;14.13;5.80;;;;;;;10.45;100.00;97281.19;4998139;28;20049;-67
2023/10/10 01:01:47;;;;;;;18.67;6.00;;;;;;;10.54;100.00;97283.78;5009627;28;20129;-68
2023/10/10 01:04:13;;;;;;;20.27;6.30;;;;;;;10.58;100.00;97284.66;5003147;28;20045;-69
2023/10/10 01:06:41;;;;;;;15.75;5.78;;;;;;;10.63;100.00;97285.19;5002405;28;20052;-68
2023/10/10 01:09:20;;;;;;;20.95;6.50;;;;;;;10.65;100.00;97277.41;5000267;28;20033;-68
2023/10/10 01:11:49;;;;;;;15.27;5.53;;;;;;;10.70;100.00;97281.84;5006976;28;20481;-68
2023/10/10 01:14:26;;;;;;;15.15;6.28;;;;;;;10.71;100.00;97276.00;5020365;28;20076;-68
2023/10/10 01:16:55;;;;;;;13.93;5.57;;;;;;;10.66;100.00;97276.25;5012254;28;20477;-68
2023/10/10 01:19:21;;;;;;;16.00;5.72;;;;;;;10.64;100.00;97277.75;5021135;28;20110;-68
2023/10/10 01:21:57;;;;;;;11.95;5.07;;;;;;;10.63;100.00;97279.69;4991190;28;20042;-68
2023/10/10 01:24:31;;;;;;;14.32;4.93;;;;;;;10.59;100.00;97275.25;5011129;28;20339;-70
2023/10/10 01:27:13;;;;;;;14.95;4.70;;;;;;;10.49;100.00;97279.34;5010248;28;20044;-69
2023/10/10 01:29:41;;;;;;;7.85;4.32;;;;;;;10.46;100.00;97271.81;5009024;28;20132;-70
2023/10/10 01:32:10;;;;;;;8.63;3.83;;;;;;;10.43;100.00;97270.59;5010958;28;20045;-68
2023/10/10 01:34:45;;;;;;;11.50;4.28;;;;;;;10.40;100.00;97276.75;5008029;28;20061;-70
2023/10/10 01:37:20;;;;;;;11.98;4.68;;;;;;;10.36;100.00;97277.81;5007788;28;20459;-71
2023/10/10 01:40:16;;;;;;;12.48;4.90;;;;;;;10.41;100.00;97267.41;5008820;28;20069;-70
2023/10/10 01:42:53;;;;;;;15.40;5.10;;;;;;;10.33;100.00;97273.81;5012078;28;20092;-70
2023/10/10 01:45:19;;;;;;;14.85;5.82;;;;;;;10.07;100.00;97271.56;5003758;28;20516;-70
2023/10/10 01:47:57;;;;;;;11.98;4.38;;;;;;;10.02;100.00;97269.06;5007001;28;20103;-70
2023/10/10 01:50:26;;;;;;;13.43;5.10;;;;;;;9.99;100.00;97265.06;5009573;28;20053;-72
2023/10/10 01:52:55;;;;;;;11.73;5.43;;;;;;;10.00;100.00;97266.66;5015161;28;20501;-69
2023/10/10 01:55:24;;;;;;;8.43;3.80;;;;;;;10.00;100.00;97266.66;5010363;28;20323;-68
2023/10/10 01:57:50;;;;;;;14.30;5.45;;;;;;;10.02;100.00;97280.78;5013187;28;20118;-71
2023/10/10 02:02:50;;;;;;;18.20;5.07;;;;;;;10.02;100.00;97271.78;5026633;28;20128;-69
2023/10/10 02:05:32;;;;;;;20.10;6.15;;;;;;;9.82;100.00;97274.38;5005923;28;20424;-69
2023/10/10 02:07:58;;;;;;;13.90;5.35;;;;;;;9.69;100.00;97267.38;5025523;28;20048;-68
2023/10/10 02:10:29;;;;;;;11.60;4.85;;;;;;;9.76;100.00;97267.56;5021854;28;20641;-67
2023/10/10 02:12:59;;;;;;;17.88;6.03;;;;;;;9.81;100.00;97272.78;5010466;28;20125;-67
2023/10/10 02:15:32;;;;;;;12.73;5.03;;;;;;;9.86;100.00;97267.06;5021878;28;20596;-68
2023/10/10 02:18:04;;;;;;;16.65;5.57;;;;;;;9.92;100.00;97276.63;5012332;28;20624;-67
2023/10/10 02:25:45;;;;;;;12.40;5.30;;;;;;;9.76;100.00;97257.41;5016001;28;20083;-69
2023/10/10 02:30:45;;;;;;;6.18;4.03;;;;;;;9.45;100.00;97260.00;5021870;28;20053;-68
2023/10/10 02:38:31;;;;;;;7.18;3.45;;;;;;;9.43;100.00;97260.34;5020316;28;20049;-69
2023/10/10 02:41:48;;;;;;;11.05;4.32;;;;;;;9.46;100.00;97258.88;5010135;28;20079;-69
2023/10/10 02:46:53;;;;;;;13.98;4.40;;;;;;;9.54;100.00;97263.41;5024045;28;20140;-68
2023/10/10 02:49:22;;;;;;;10.23;4.18;;;;;;;9.54;100.00;97252.47;5018737;28;20095;-68
2023/10/10 02:51:49;;;;;;;8.38;4.43;;;;;;;9.55;100.00;97254.06;5014463;28;20096;-69
2023/10/10 02:54:28;;;;;;;9.88;4.25;;;;;;;9.53;100.00;97259.88;5019241;28;20041;-68
2023/10/10 02:56:57;;;;;;;8.00;4.10;;;;;;;9.51;100.00;97250.44;5026698;28;20037;-70
2023/10/10 02:59:38;;;;;;;6.13;3.42;;;;;;;9.47;100.00;97247.59;5019607;28;20804;-69
2023/10/10 03:02:18;;;;;;;5.72;3.75;;;;;;;9.42;100.00;97250.56;5035118;28;20400;-67
2023/10/10 03:07:31;;;;;;;9.00;4.10;;;;;;;9.35;100.00;97251.16;5006210;28;20515;-69
2023/10/10 03:12:48;;;;;;;9.32;3.72;;;;;;;9.29;100.00;97257.19;5020086;28;20144;-70
2023/10/10 03:17:48;;;;;;;4.65;3.00;;;;;;;9.24;100.00;97247.31;5013554;28;20064;-68
2023/10/10 03:20:25;;;;;;;8.68;3.88;;;;;;;9.26;100.00;97244.22;5012789;28;20053;-69
2023/10/10 03:25:54;;;;;;;8.55;3.10;;;;;;;9.26;100.00;97245.00;5013077;28;20042;-69
2023/10/10 03:28:22;;;;;;;8.75;3.78;;;;;;;9.14;100.00;97256.75;5010913;28;20088;-69
2023/10/10 03:30:52;;;;;;;7.85;3.33;;;;;;;9.16;100.00;97251.75;5006350;28;20042;-69
2023/10/10 03:39:42;;;;;;;7.55;4.30;;;;;;;9.15;100.00;97252.09;5006074;28;20049;-69
2023/10/10 05:25:44;;;;;;;9.30;4.85;;;;;;;7.88;100.00;97245.53;4979843;28;20050;-71
2023/10/10 05:28:09;;;;;;;12.32;5.03;;;;;;;7.85;100.00;97255.19;4978654;28;20504;-71
2023/10/10 05:30:44;;;;;;;15.07;5.20;;;;;;;8.15;100.00;97258.56;4966472;28;20050;-71
2023/10/10 05:33:09;;;;;;;13.00;4.72;;;;;;;8.37;100.00;97254.66;4965092;28;20386;-71
2023/10/10 05:35:49;;;;;;;11.48;4.68;;;;;;;8.61;100.00;97248.47;4986605;28;20049;-71
2023/10/10 05:38:15;;;;;;;9.80;4.28;;;;;;;8.72;100.00;97248.81;4972671;28;20046;-72
2023/10/10 05:40:43;;;;;;;10.50;4.32;;;;;;;8.80;100.00;97258.03;4978462;28;20477;-71
2023/10/10 05:43:09;;;;;;;11.25;4.20;;;;;;;8.79;100.00;97250.97;4970132;28;20133;-71
2023/10/10 05:45:36;;;;;;;17.50;4.75;;;;;;;8.64;100.00;97257.91;4974149;28;20108;-71
2023/10/10 05:48:01;;;;;;;12.70;4.97;;;;;;;8.41;100.00;97260.25;4982698;28;20046;-70
2023/10/10 05:50:27;;;;;;;10.70;4.45;;;;;;;8.49;100.00;97258.56;4968243;28;20057;-71
2023/10/10 05:52:53;;;;;;;9.38;4.40;;;;;;;8.64;100.00;97254.38;4980095;28;20054;-69
2023/10/10 05:55:20;;;;;;;11.40;4.45;;;;;;;8.64;100.00;97246.97;4979669;28;20046;-70
2023/10/10 05:57:46;;;;;;;14.55;4.93;;;;;;;8.68;100.00;97256.09;4991775;28;20046;-70
2023/10/10 06:00:13;;;;;;;12.35;4.40;;;;;;;8.82;100.00;97261.19;4978651;28;20045;-70
2023/10/10 06:02:42;;;;;;;9.32;4.70;;;;;;;8.95;100.00;97262.03;4983509;28;20046;-70
2023/10/10 06:05:09;;;;;;;24.50;5.90;;;;;;;9.04;100.00;97257.22;4977271;28;20102;-71
2023/10/10 06:07:37;;;;;;;27.52;8.38;;;;;;;9.16;100.00;97261.88;4974266;28;20046;-71
2023/10/10 06:10:06;;;;;;;32.55;7.97;;;;;;;9.36;100.00;97260.13;4961946;28;20042;-68
2023/10/10 06:12:33;;;;;;;32.05;7.72;;;;;;;9.45;100.00;97260.78;4973564;28;20126;-71
2023/10/10 06:15:05;;;;;;;40.05;8.00;;;;;;;9.45;100.00;97254.53;4969739;28;20534;-70
2023/10/10 06:17:33;;;;;;;34.83;8.10;;;;;;;9.54;100.00;97261.47;4977759;28;20046;-71
2023/10/10 06:20:00;;;;;;;38.05;8.18;;;;;;;9.56;100.00;97261.94;4969858;28;20097;-70
2023/10/10 06:22:29;;;;;;;33.90;10.43;;;;;;;9.75;100.00;97263.22;4980576;28;20054;-70
2023/10/10 06:24:58;;;;;;;55.72;9.23;;;;;;;9.62;100.00;97258.97;4968009;28;20077;-70
2023/10/10 06:27:28;;;;;;;68.30;9.48;;;;;;;9.68;100.00;97263.03;4979182;28;20070;-70
2023/10/10 06:30:01;;;;;;;51.58;10.90;;;;;;;9.67;100.00;97270.44;4984450;28;20049;-71
2023/10/10 06:32:31;;;;;;;47.85;11.27;;;;;;;9.80;100.00;97264.94;4973956;28;20046;-70
2023/10/10 06:37:43;;;;;;;63.70;11.13;;;;;;;10.19;100.00;97266.03;4967579;28;20042;-71
2023/10/10 06:40:09;;;;;;;40.80;11.25;;;;;;;10.33;100.00;97262.88;4976660;28;20074;-70
2023/10/10 06:42:36;;;;;;;41.00;11.23;;;;;;;10.48;100.00;97266.81;4983627;28;20110;-70
2023/10/10 06:45:07;;;;;;;44.17;13.38;;;;;;;10.73;100.00;97269.34;4978860;28;20567;-72
2023/10/10 06:47:50;;;;;;;51.80;10.80;;;;;;;10.66;100.00;97264.50;4991972;28;20127;-70
2023/10/10 06:50:21;;;;;;;89.93;13.02;;;;;;;10.66;100.00;97267.22;4970849;28;20406;-71
2023/10/10 06:52:53;;;;;;;37.45;12.40;;;;;;;10.84;100.00;97263.00;4982035;28;20401;-71
2023/10/10 06:55:36;;;;;;;92.28;13.32;;;;;;;10.98;100.00;97261.75;4961344;28;20039;-71
2023/10/10 06:58:02;;;;;;;40.67;13.13;;;;;;;11.14;100.00;97262.50;4980331;28;20133;-71
2023/10/10 07:03:39;;;;;;;44.58;13.32;;;;;;;11.43;100.00;97260.41;4970442;28;20043;-70
2023/10/10 07:06:08;;;;;;;38.78;13.18;;;;;;;11.56;100.00;97259.16;4965208;28;20054;-70
2023/10/10 07:08:34;;;;;;;41.38;13.85;;;;;;;11.69;100.00;97261.75;4978923;28;20057;-71
2023/10/10 07:11:04;;;;;;;48.90;13.15;;;;;;;11.63;100.00;97259.31;4967517;28;20046;-70
2023/10/10 07:13:30;;;;;;;30.70;13.68;;;;;;;11.79;100.00;97262.00;4974694;28;20043;-71
2023/10/10 07:15:59;;;;;;;35.60;13.55;;;;;;;11.96;100.00;97260.00;4974352;28;20046;-69
2023/10/10 07:18:25;;;;;;;41.05;14.35;;;;;;;12.21;100.00;97261.25;4966459;28;20145;-69
2023/10/10 07:21:17;;;;;;;37.90;13.75;;;;;;;12.45;100.00;97256.59;4972952;28;20066;-71
2023/10/10 07:24:02;;;;;;;42.00;13.32;;;;;;;12.71;100.00;97257.81;4981769;28;20060;-71
2023/10/10 07:26:40;;;;;;;41.45;12.38;;;;;;;12.93;100.00;97257.00;4975869;28;20054;-71
2023/10/10 07:29:26;;;;;;;29.80;13.13;;;;;;;13.09;100.00;97259.63;4969066;28;20408;-72
2023/10/10 07:32:04;;;;;;;45.15;13.48;;;;;;;13.27;100.00;97257.13;4982545;28;20069;-71
2023/10/10 07:34:39;;;;;;;41.03;13.80;;;;;;;13.46;100.00;97263.72;4962969;28;20054;-72
2023/10/10 07:37:14;;;;;;;54.45;12.68;;;;;;;13.66;100.00;97273.41;4978449;28;20058;-70
2023/10/10 07:39:55;;;;;;;32.92;11.55;;;;;;;13.85;100.00;97268.97;4972754;28;20525;-69
2023/10/10 07:42:27;;;;;;;59.45;10.45;;;;;;;14.08;100.00;97271.56;4974891;28;20050;-69
2023/10/10 07:44:54;;;;;;;14.75;9.38;;;;;;;14.40;100.00;97285.69;4999346;28;20046;-72
2023/10/10 07:47:31;;;;;;;23.77;8.85;;;;;;;14.67;100.00;97285.63;4973552;28;20050;-69
2023/10/10 07:49:59;;;;;;;25.15;7.63;;;;;;;14.70;100.00;97293.91;4966227;28;20133;-69
2023/10/10 07:52:26;;;;;;;10.15;6.95;;;;;;;14.86;100.00;97287.38;4964180;28;20051;-72
2023/10/10 07:54:52;;;;;;;8.77;6.22;;;;;;;15.23;100.00;97286.47;4973906;28;20055;-70
2023/10/10 07:57:21;;;;;;;6.72;5.07;;;;;;;15.53;100.00;97286.28;4974774;28;20397;-70
2023/10/10 07:59:57;;;;;;;9.50;5.30;;;;;;;15.94;100.00;97286.16;4970769;28;20050;-70
2023/10/10 08:04:56;;;;;;;8.88;6.18;;;;;;;15.31;100.00;97290.09;4976883;28;20412;-71
2023/10/10 08:07:24;;;;;;;10.52;5.93;;;;;;;15.52;100.00;97287.47;4975008;28;20327;-71
2023/10/10 08:12:36;;;;;;;8.18;4.72;;;;;;;16.57;100.00;97280.44;4968297;28;20070;-71
2023/10/10 08:15:18;;;;;;;8.07;5.18;;;;;;;17.20;100.00;97290.00;4963599;28;20046;-70
2023/10/10 08:17:51;;;;;;;8.25;4.40;;;;;;;17.70;100.00;97286.38;4974916;28;20081;-71
2023/10/10 08:20:34;;;;;;;6.85;4.88;;;;;;;17.50;100.00;97286.00;4966798;28;20133;-71
2023/10/10 08:23:02;;;;;;;8.98;4.43;;;;;;;17.93;100.00;97296.22;4964421;28;20042;-71
2023/10/10 08:25:28;;;;;;;6.82;4.63;;;;;;;17.91;100.00;97288.28;4972746;28;20055;-72
2023/10/10 08:27:55;;;;;;;7.80;4.93;;;;;;;18.03;100.00;97292.63;4965881;28;20042;-71
2023/10/10 08:30:25;;;;;;;10.50;5.38;;;;;;;18.27;100.00;97301.22;4966100;28;20035;-71
2023/10/10 08:32:56;;;;;;;10.88;5.28;;;;;;;18.25;100.00;97293.31;4965470;28;20435;-71
2023/10/10 08:35:38;;;;;;;9.82;5.00;;;;;;;18.96;100.00;97299.69;4978563;28;20039;-71
2023/10/10 08:38:05;;;;;;;8.60;5.10;;;;;;;19.17;100.00;97292.38;4977353;28;20049;-70
2023/10/10 08:40:35;;;;;;;10.45;5.88;;;;;;;19.68;100.00;97301.84;4970024;28;20050;-69
2023/10/10 08:43:03;;;;;;;15.57;5.90;;;;;;;20.50;100.00;97305.66;4980496;28;20049;-69
2023/10/10 08:45:39;;;;;;;11.23;5.95;;;;;;;19.59;100.00;97302.31;4963685;28;20100;-71
2023/10/10 08:48:12;;;;;;;11.52;5.70;;;;;;;19.89;100.00;97311.97;4970454;28;20090;-71
2023/10/10 08:50:40;;;;;;;13.45;5.60;;;;;;;20.59;100.00;97297.59;4986596;28;20050;-71
2023/10/10 08:53:11;;;;;;;12.35;5.35;;;;;;;21.67;100.00;97309.09;4968543;28;20137;-69
2023/10/10 08:55:38;;;;;;;16.88;6.57;;;;;;;21.26;98.94;97307.34;4974932;28;20517;-69
2023/10/10 08:58:09;;;;;;;9.80;5.95;;;;;;;20.87;100.00;97300.41;4968150;28;20066;-70
2023/10/10 09:00:35;;;;;;;15.73;5.28;;;;;;;21.94;98.97;97315.34;4977380;28;20046;-71
2023/10/10 09:03:00;;;;;;;14.85;5.75;;;;;;;21.85;94.57;97303.94;5001104;28;20113;-71
2023/10/10 09:05:29;;;;;;;17.65;7.47;;;;;;;20.13;100.00;97298.19;4980488;28;20517;-71
2023/10/10 09:08:05;;;;;;;18.85;9.07;;;;;;;19.01;100.00;97299.22;4972578;28;20061;-70
2023/10/10 09:10:39;;;;;;;18.25;6.88;;;;;;;20.07;100.00;97291.50;4970562;28;20125;-71
2023/10/10 09:13:12;;;;;;;20.27;6.32;;;;;;;22.50;94.08;97297.09;4973974;28;20101;-72
2023/10/10 09:15:50;;;;;;;18.48;6.40;;;;;;;23.87;79.77;97313.44;4944880;28;20086;-71
2023/10/10 09:18:22;;;;;;;25.40;7.80;;;;;;;21.55;86.57;97308.50;4986675;28;20105;-71
2023/10/10 09:20:49;;;;;;;26.90;7.82;;;;;;;21.25;91.17;97309.38;4963922;28;20041;-72
2023/10/10 09:23:32;;;;;;;25.48;7.13;;;;;;;21.49;89.62;97309.41;4965121;28;20517;-72
2023/10/10 09:28:58;;;;;;;19.10;6.32;;;;;;;21.33;97.63;97304.47;4969326;28;20046;-72
2023/10/10 09:31:27;;;;;;;20.73;7.28;;;;;;;23.29;81.08;97312.88;4972441;28;20070;-71
2023/10/10 09:33:56;;;;;;;20.92;6.18;;;;;;;24.51;73.98;97314.44;4967222;28;20057;-72
2023/10/10 09:36:27;;;;;;;19.65;6.78;;;;;;;25.40;68.01;97324.13;4978504;28;20111;-72
2023/10/10 09:38:57;;;;;;;19.65;6.20;;;;;;;25.51;63.56;97312.56;4991559;28;20078;-71
2023/10/10 09:49:51;;;;;;;19.25;6.45;;;;;;;25.99;63.94;97310.53;4979760;28;20489;-71
2023/10/10 09:57:42;;;;;;;24.45;7.00;;;;;;;27.77;54.34;97317.34;4973025;28;20374;-70
2023/10/10 10:00:13;;;;;;;26.05;7.00;;;;;;;28.45;50.43;97322.81;4980867;28;20050;-72
2023/10/10 10:02:43;;;;;;;28.42;6.70;;;;;;;27.97;51.19;97328.94;4970049;28;20050;-72
2023/10/10 10:05:20;;;;;;;20.73;6.45;;;;;;;28.05;49.20;97331.44;4973103;28;20497;-71
2023/10/10 10:08:07;;;;;;;21.42;6.22;;;;;;;27.55;50.72;97328.69;4978911;28;20117;-71
2023/10/10 10:10:52;;;;;;;21.15;6.70;;;;;;;25.93;55.96;97315.97;4985326;28;20057;-71
2023/10/10 10:13:26;;;;;;;27.65;6.68;;;;;;;26.07;55.61;97314.66;4964097;28;20038;-71
2023/10/10 10:16:25;;;;;;;13.57;6.57;;;;;;;25.16;65.29;97312.47;4977042;28;20069;-71
2023/10/10 10:19:10;;;;;;;16.38;6.53;;;;;;;24.03;73.49;97311.38;4975652;28;20062;-71
2023/10/10 10:21:51;;;;;;;14.95;6.85;;;;;;;23.15;81.90;97301.25;4969900;28;20513;-71
2023/10/10 10:24:44;;;;;;;22.55;7.55;;;;;;;22.28;89.38;97302.38;4961487;28;20051;-71
2023/10/10 10:27:25;;;;;;;16.88;8.65;;;;;;;21.04;100.00;97291.00;4988039;28;20053;-70
2023/10/10 10:32:46;;;;;;;19.40;8.30;;;;;;;21.29;100.00;97296.16;4977962;28;20046;-71
2023/10/10 10:35:20;;;;;;;22.38;9.55;;;;;;;20.92;100.00;97294.34;4973195;28;20127;-71
2023/10/10 10:37:54;;;;;;;20.85;9.48;;;;;;;21.11;100.00;97290.09;4978688;28;20055;-70
2023/10/10 10:40:41;;;;;;;18.80;9.10;;;;;;;21.19;99.99;97295.13;4967185;28;20043;-71
2023/10/10 10:43:20;;;;;;;22.55;9.27;;;;;;;21.43;100.00;97291.53;4973700;28;20109;-71
2023/10/10 10:45:51;;;;;;;26.50;9.70;;;;;;;21.23;98.58;97292.28;4979063;28;20069;-71
2023/10/10 10:48:29;;;;;;;22.23;9.52;;;;;;;21.61;98.45;97286.50;4977367;28;20125;-71
2023/10/10 10:51:22;;;;;;;20.80;8.63;;;;;;;22.05;93.70;97286.44;4974428;28;20520;-70
2023/10/10 10:53:56;;;;;;;22.38;9.60;;;;;;;22.21;93.72;97288.53;4975396;28;20114;-72
2023/10/10 10:59:11;;;;;;;24.52;11.18;;;;;;;22.41;92.23;97285.75;5004359;28;20042;-72
2023/10/10 11:01:42;;;;;;;24.02;9.50;;;;;;;22.36;93.00;97289.81;4970558;28;20047;-72
2023/10/10 11:04:14;;;;;;;20.98;9.52;;;;;;;22.40;91.92;97298.13;4967800;28;20046;-69
2023/10/10 11:06:52;;;;;;;26.50;9.93;;;;;;;22.55;89.63;97291.03;4983984;28;20069;-72
2023/10/10 11:09:31;;;;;;;34.35;12.95;;;;;;;22.33;91.22;97285.91;4983029;28;20133;-71
2023/10/10 11:12:02;;;;;;;29.02;11.48;;;;;;;22.26;89.49;97285.25;4977029;28;20051;-71
2023/10/10 11:14:31;;;;;;;23.80;10.10;;;;;;;22.24;90.03;97277.28;4975918;28;20046;-71
2023/10/10 11:16:57;;;;;;;;;;;;;;;22.20;90.95;97275.78;4985548;28;20054;-71
2023/10/10 11:21:54;;;;;;;26.70;9.93;;;;;;;22.27;91.60;97261.72;4975431;28;20042;-71
2023/10/10 11:24:25;;;;;;;20.65;9.57;;;;;;;22.55;89.20;97260.31;4971752;28;20521;-71
2023/10/10 11:29:43;;;;;;;24.67;9.15;;;;;;;22.84;85.86;97256.88;4985452;28;20054;-70
2023/10/10 11:32:11;;;;;;;21.25;9.23;;;;;;;23.33;82.88;97261.69;4981295;28;20050;-71
2023/10/10 11:34:46;;;;;;;19.15;8.52;;;;;;;23.74;82.06;97251.84;4977684;28;20039;-73
2023/10/10 11:37:20;;;;;;;29.00;9.73;;;;;;;23.63;79.79;97258.50;4971751;28;20049;-72
2023/10/10 11:39:47;;;;;;;23.02;8.93;;;;;;;23.52;80.43;97246.03;4979196;28;20045;-71
2023/10/10 11:42:26;;;;;;;28.30;8.63;;;;;;;23.12;83.52;97240.66;4962128;28;20105;-71
2023/10/10 11:45:02;;;;;;;;;;;;;;;23.14;83.59;97238.22;4982946;28;20046;-73
2023/10/10 11:47:28;;;;;;;28.30;8.88;;;;;;;23.25;82.27;97239.50;4969822;28;19949;-72
2023/10/10 11:50:02;;;;;;;25.42;9.43;;;;;;;22.90;83.60;97239.16;4974265;28;20046;-71
2023/10/10 11:52:28;;;;;;;25.70;9.70;;;;;;;22.76;84.79;97230.31;4967720;28;20066;-71
2023/10/10 11:55:00;;;;;;;35.88;10.10;;;;;;;22.66;84.35;97238.50;4989038;28;20046;-72
2023/10/10 11:57:29;;;;;;;31.52;9.27;;;;;;;22.64;84.56;97240.97;4983214;28;20054;-70
2023/10/10 12:00:11;;;;;;;28.42;10.10;;;;;;;22.22;87.70;97225.91;4968156;28;20149;-70
2023/10/10 12:02:43;;;;;;;29.08;9.73;;;;;;;21.96;91.03;97225.66;5000502;28;20077;-70
2023/10/10 12:07:58;;;;;;;30.70;10.45;;;;;;;21.96;89.97;97220.88;4981747;28;20061;-71
2023/10/10 12:10:31;;;;;;;30.85;10.82;;;;;;;21.83;87.96;97221.97;4969476;28;20409;-71
2023/10/10 12:12:56;;;;;;;29.60;10.63;;;;;;;22.04;87.63;97226.28;4973796;28;20074;-71
2023/10/10 12:15:22;;;;;;;27.23;10.95;;;;;;;21.95;87.04;97222.09;4976609;28;20288;-71
2023/10/10 12:17:53;;;;;;;30.98;10.98;;;;;;;22.10;88.16;97222.56;4974018;28;20046;-71
2023/10/10 12:20:19;;;;;;;29.02;11.50;;;;;;;22.37;83.20;97213.28;4972498;28;20038;-71
2023/10/10 12:22:44;;;;;;;32.15;10.80;;;;;;;22.33;82.56;97216.13;4978253;28;20050;-71
2023/10/10 12:25:13;;;;;;;28.77;10.63;;;;;;;22.17;82.21;97215.28;4975991;28;20137;-71
2023/10/10 12:27:48;;;;;;;32.92;10.80;;;;;;;22.24;81.30;97215.13;4973474;28;20053;-71
2023/10/10 12:30:18;;;;;;;26.52;9.93;;;;;;;22.25;82.70;97209.09;4970949;28;20511;-71
2023/10/10 12:32:46;;;;;;;26.40;9.30;;;;;;;22.38;81.14;97206.44;4982869;28;20068;-71
2023/10/10 12:35:12;;;;;;;24.70;8.67;;;;;;;22.48;78.54;97207.44;4971332;28;20038;-71
2023/10/10 12:37:38;;;;;;;32.22;9.02;;;;;;;22.60;80.12;97206.75;4986984;28;20352;-70
2023/10/10 12:40:09;;;;;;;28.27;9.30;;;;;;;22.69;79.53;97204.16;4978621;28;20058;-69
2023/10/10 12:42:35;;;;;;;21.13;8.50;;;;;;;22.96;77.54;97199.50;4991928;28;20042;-72
2023/10/10 12:45:01;;;;;;;31.17;8.52;;;;;;;22.70;78.12;97193.75;4968497;28;20050;-70
2023/10/10 12:47:31;;;;;;;30.27;9.10;;;;;;;22.80;77.68;97198.31;4975102;28;20066;-70
2023/10/10 12:50:13;;;;;;;22.45;7.95;;;;;;;22.77;77.69;97190.78;4966341;28;20054;-71
2023/10/10 12:52:45;;;;;;;21.30;7.80;;;;;;;22.80;77.30;97183.56;4977432;28;20106;-71
2023/10/10 12:55:11;;;;;;;23.48;8.13;;;;;;;22.82;79.10;97178.34;4969592;28;20138;-71
2023/10/10 12:57:37;;;;;;;26.67;8.70;;;;;;;22.61;78.01;97180.41;4972638;28;20213;-72
2023/10/10 13:02:48;;;;;;;23.77;8.02;;;;;;;22.47;81.44;97180.75;4969640;28;20075;-70
2023/10/10 13:05:16;;;;;;;24.27;7.00;;;;;;;22.48;82.21;97176.75;4961433;28;20387;-70
2023/10/10 13:07:43;;;;;;;28.80;8.30;;;;;;;22.46;80.27;97182.75;4989262;28;20548;-71
2023/10/10 13:10:13;;;;;;;27.15;7.28;;;;;;;22.05;81.82;97175.66;4979068;28;20047;-71
2023/10/10 13:12:46;;;;;;;31.42;8.40;;;;;;;21.89;84.41;97176.41;4977302;28;20129;-71
2023/10/10 13:15:27;;;;;;;27.00;8.68;;;;;;;21.91;83.35;97168.41;4969150;28;20039;-71
2023/10/10 13:17:54;;;;;;;32.25;8.07;;;;;;;21.81;84.11;97165.84;4977926;28;20050;-71
2023/10/10 13:20:23;;;;;;;29.45;8.43;;;;;;;21.81;86.18;97165.84;4962162;28;20070;-71
2023/10/10 13:22:50;;;;;;;28.63;8.90;;;;;;;21.65;88.48;97163.78;4974221;28;20124;-71
2023/10/10 13:25:17;;;;;;;29.27;8.50;;;;;;;21.50;91.47;97163.25;4971009;28;20038;-70
2023/10/10 13:27:46;;;;;;;27.50;9.10;;;;;;;21.25;93.92;97158.94;4975365;28;20045;-69
2023/10/10 13:30:12;;;;;;;30.35;8.02;;;;;;;21.50;90.83;97146.53;4968283;28;20137;-70
2023/10/10 13:32:38;;;;;;;23.95;8.95;;;;;;;21.57;92.60;97155.56;4978569;28;20050;-72
2023/10/10 13:35:05;;;;;;;29.90;7.88;;;;;;;21.90;89.70;97143.75;4976245;28;20053;-70
2023/10/10 13:37:30;;;;;;;28.45;8.32;;;;;;;21.91;87.73;97142.50;4987377;28;20042;-72
2023/10/10 13:39:56;;;;;;;28.48;8.32;;;;;;;21.80;88.94;97136.38;4985856;28;20467;-69
2023/10/10 13:42:21;;;;;;;33.13;8.13;;;;;;;21.80;88.26;97139.16;4980658;28;20609;-71
2023/10/10 13:44:48;;;;;;;30.73;8.10;;;;;;;21.77;88.58;97138.03;4978330;28;20134;-71
2023/10/10 13:47:16;;;;;;;22.95;8.00;;;;;;;21.89;88.33;97139.38;4972907;28;20053;-70
2023/10/10 13:49:45;;;;;;;31.30;8.15;;;;;;;21.92;88.61;97130.94;4978681;28;20437;-70
2023/10/10 13:52:16;;;;;;;24.52;7.93;;;;;;;22.11;88.52;97136.88;4976635;28;20104;-71
2023/10/10 13:54:41;;;;;;;25.42;7.25;;;;;;;22.14;86.44;97145.19;4970360;28;20039;-70
2023/10/10 13:57:07;;;;;;;29.15;7.65;;;;;;;22.22;85.81;97143.03;4971983;28;20046;-71
2023/10/10 13:59:33;;;;;;;27.00;7.32;;;;;;;22.45;85.21;97144.13;4976974;28;20049;-70
2023/10/10 14:02:03;;;;;;;33.30;7.05;;;;;;;22.52;82.37;97147.50;4984391;28;20046;-71
2023/10/10 14:04:45;;;;;;;20.10;7.45;;;;;;;22.55;81.33;97150.69;4963126;28;20053;-71
2023/10/10 14:07:14;;;;;;;25.48;7.68;;;;;;;22.37;82.55;97139.94;4964437;28;20053;-72
2023/10/10 14:09:40;;;;;;;29.13;8.05;;;;;;;22.30;83.79;97136.06;4986828;28;20043;-71
2023/10/10 14:12:08;;;;;;;27.90;8.18;;;;;;;22.23;83.93;97141.00;4997960;28;20042;-71
2023/10/10 14:14:33;;;;;;;22.67;7.60;;;;;;;21.93;84.73;97142.84;4978968;28;20041;-72
2023/10/10 14:16:59;;;;;;;28.17;8.07;;;;;;;22.09;85.06;97142.91;4972531;28;20043;-71
2023/10/10 14:19:24;;;;;;;30.92;8.43;;;;;;;21.93;84.53;97134.50;4969948;28;20047;-72
2023/10/10 14:21:54;;;;;;;26.90;7.45;;;;;;;21.84;86.31;97140.69;4976305;28;20508;-71
2023/10/10 14:24:19;;;;;;;21.67;7.90;;;;;;;21.83;88.18;97130.72;4963491;28;20489;-71
2023/10/10 14:26:48;;;;;;;27.17;8.52;;;;;;;21.89;85.91;97128.22;4967594;28;20057;-70
2023/10/10 14:29:14;;;;;;;21.65;8.05;;;;;;;21.92;85.93;97130.16;4979062;28;20039;-70
2023/10/10 14:31:44;;;;;;;30.70;9.20;;;;;;;21.77;86.91;97133.25;4969546;28;20395;-71
2023/10/10 14:34:24;;;;;;;27.30;7.95;;;;;;;21.71;87.12;97132.16;4964415;28;20108;-71
2023/10/10 14:36:51;;;;;;;27.63;8.15;;;;;;;21.55;88.00;97138.50;4984865;28;20050;-71
2023/10/10 14:39:29;;;;;;;26.95;8.05;;;;;;;21.49;87.77;97128.25;4973469;28;20042;-71
2023/10/10 14:41:58;;;;;;;29.00;8.02;;;;;;;21.54;87.73;97131.31;4999513;28;20047;-70
2023/10/10 14:44:28;;;;;;;32.55;7.85;;;;;;;21.53;87.26;97129.75;4964260;28;20039;-71
2023/10/10 14:46:54;;;;;;;31.55;9.10;;;;;;;21.53;86.33;97134.53;4968299;28;20039;-70
2023/10/10 14:49:28;;;;;;;29.58;8.55;;;;;;;21.56;87.34;97130.91;4974835;28;20147;-70
2023/10/10 14:51:55;;;;;;;28.27;7.72;;;;;;;21.53;87.78;97132.53;4983633;28;20543;-70